Time;durP1;ratioP1;P1;durP2;ratioP2;P2;SDS_P1;SDS_P2;PMS_P1;PMS_P2;Temp;Humidity;BMP_temperature;BMP_pressure;BME280_temperature;BME280_humidity;BME280_pressure;Samples;Min_cycle;Max_cycle;Signal;HPM_P1;HPM_P2
2024/04/07 00:09:29;;;;;;;;;;;22.10;87.90;;;;;;6712276;88;20050;-75
2024/04/07 00:19:31;;;;;;;;;;;22.30;87.40;;;;;;6716568;88;20581;-76
2024/04/07 00:29:32;;;;;;;;;;;22.20;88.10;;;;;;6712274;88;20131;-77
2024/04/07 00:39:32;;;;;;;;;;;22.30;88.10;;;;;;6718468;88;20072;-77
2024/04/07 00:49:33;;;;;;;;;;;22.00;88.60;;;;;;6711720;88;20062;-76
2024/04/07 00:59:34;;;;;;;;;;;21.70;89.70;;;;;;6717639;88;20613;-77
2024/04/07 01:09:35;;;;;;;;;;;21.70;90.00;;;;;;6717117;88;20096;-78
2024/04/07 01:19:35;;;;;;;;;;;21.70;89.80;;;;;;6705293;88;20059;-76
2024/04/07 01:29:36;;;;;;;;;;;21.60;90.10;;;;;;6713378;88;20055;-76
2024/04/07 01:39:36;;;;;;;;;;;21.50;90.30;;;;;;6714329;88;20069;-76
2024/04/07 01:49:36;;;;;;;;;;;21.50;90.50;;;;;;6712125;88;20199;-77
2024/04/07 01:59:37;;;;;;;;;;;21.40;90.70;;;;;;6714902;88;20583;-76
2024/04/07 02:09:37;;;;;;;;;;;21.40;90.50;;;;;;6719857;88;20091;-78
2024/04/07 02:19:38;;;;;;;;;;;21.30;90.70;;;;;;6723510;88;20543;-79
2024/04/07 02:29:39;;;;;;;;;;;21.10;91.10;;;;;;6721863;88;20085;-78
2024/04/07 02:39:39;;;;;;;;;;;21.10;91.30;;;;;;6722225;88;20121;-78
2024/04/07 02:49:39;;;;;;;;;;;21.00;91.60;;;;;;6726870;88;20059;-78
2024/04/07 02:59:40;;;;;;;;;;;20.70;91.90;;;;;;6727590;88;20080;-78
2024/04/07 03:09:41;;;;;;;;;;;20.60;92.20;;;;;;6728601;88;20077;-78
2024/04/07 03:19:41;;;;;;;;;;;20.40;92.60;;;;;;6727051;88;20071;-79
2024/04/07 03:29:42;;;;;;;;;;;20.10;93.10;;;;;;6726784;88;20585;-79
2024/04/07 03:39:42;;;;;;;;;;;20.00;93.50;;;;;;6727879;88;20121;-77
2024/04/07 03:49:43;;;;;;;;;;;19.70;94.10;;;;;;6722372;88;20216;-78
2024/04/07 03:59:43;;;;;;;;;;;19.50;94.60;;;;;;6722422;88;20074;-78
2024/04/07 04:09:44;;;;;;;;;;;19.10;95.80;;;;;;6724169;88;20080;-79
2024/04/07 04:19:44;;;;;;;;;;;18.90;96.70;;;;;;6724661;88;20047;-78
2024/04/07 04:29:44;;;;;;;;;;;18.60;97.30;;;;;;6725736;88;20071;-78
2024/04/07 04:39:45;;;;;;;;;;;18.40;99.20;;;;;;6727879;88;20496;-78
2024/04/07 04:49:45;;;;;;;;;;;18.30;99.90;;;;;;6727139;88;20679;-78
2024/04/07 04:59:46;;;;;;;;;;;18.00;99.90;;;;;;6721898;88;20063;-78
2024/04/07 05:09:46;;;;;;;;;;;17.80;99.90;;;;;;6720496;88;20600;-78
2024/04/07 05:19:50;;;;;;;;;;;17.70;99.90;;;;;;6726904;88;20152;-77
2024/04/07 05:29:52;;;;;;;;;;;17.70;99.90;;;;;;6720635;88;20071;-78
2024/04/07 05:39:52;;;;;;;;;;;17.60;99.90;;;;;;6725669;88;20072;-78
2024/04/07 05:49:53;;;;;;;;;;;17.60;99.90;;;;;;6728447;88;20059;-79
2024/04/07 05:59:54;;;;;;;;;;;17.60;99.90;;;;;;6721482;88;20187;-77
2024/04/07 06:09:55;;;;;;;;;;;17.60;99.90;;;;;;6726967;88;20606;-78
2024/04/07 06:19:55;;;;;;;;;;;17.80;99.90;;;;;;6726414;88;20058;-78
2024/04/07 06:29:58;;;;;;;;;;;17.80;99.90;;;;;;6725897;88;20086;-78
2024/04/07 06:39:59;;;;;;;;;;;17.70;99.90;;;;;;6721046;88;20112;-78
2024/04/07 06:50:00;;;;;;;;;;;17.50;99.90;;;;;;6726239;88;20644;-78
2024/04/07 07:00:00;;;;;;;;;;;17.70;99.90;;;;;;6722848;88;20094;-78
2024/04/07 07:10:03;;;;;;;;;;;17.80;99.90;;;;;;6721961;88;20097;-77
2024/04/07 07:20:03;;;;;;;;;;;17.90;99.90;;;;;;6721367;88;20089;-77
2024/04/07 07:30:04;;;;;;;;;;;18.00;99.90;;;;;;6732073;88;20058;-80
2024/04/07 07:40:05;;;;;;;;;;;18.10;99.90;;;;;;6737261;88;20096;-78
2024/04/07 07:50:06;;;;;;;;;;;18.60;99.90;;;;;;6728162;88;20084;-77
2024/04/07 08:00:08;;;;;;;;;;;18.80;99.90;;;;;;6722653;88;20102;-78
2024/04/07 08:10:08;;;;;;;;;;;19.40;99.90;;;;;;6716433;88;20055;-76
2024/04/07 08:20:09;;;;;;;;;;;20.50;99.90;;;;;;6707619;88;20529;-77
2024/04/07 08:30:09;;;;;;;;;;;21.30;99.50;;;;;;6712682;88;20590;-77
2024/04/07 08:40:10;;;;;;;;;;;22.10;97.60;;;;;;6717259;88;20051;-77
2024/04/07 08:50:11;;;;;;;;;;;23.10;95.70;;;;;;6721028;88;20614;-78
2024/04/07 09:00:14;;;;;;;;;;;22.90;95.00;;;;;;6718687;88;20147;-78
2024/04/07 09:10:14;;;;;;;;;;;21.90;95.20;;;;;;6716743;88;20681;-78
2024/04/07 09:20:18;;;;;;;;;;;21.80;95.80;;;;;;6717323;88;20071;-77
2024/04/07 09:30:18;;;;;;;;;;;22.00;95.50;;;;;;6713844;88;20676;-77
2024/04/07 09:40:19;;;;;;;;;;;22.20;95.30;;;;;;6725730;88;20044;-78
2024/04/07 09:50:24;;;;;;;;;;;23.40;94.30;;;;;;6718434;88;20082;-78
2024/04/07 10:00:25;;;;;;;;;;;24.60;93.60;;;;;;6716152;88;20073;-78
2024/04/07 10:10:26;;;;;;;;;;;25.20;92.60;;;;;;6716358;88;20167;-77
2024/04/07 10:20:27;;;;;;;;;;;25.00;92.70;;;;;;6707425;88;20108;-77
2024/04/07 10:30:27;;;;;;;;;;;23.80;93.80;;;;;;6713216;88;20072;-79
2024/04/07 10:40:30;;;;;;;;;;;24.20;93.90;;;;;;6719513;88;20752;-79
2024/04/07 10:50:30;;;;;;;;;;;24.80;93.80;;;;;;6725180;88;20062;-78
2024/04/07 11:00:31;;;;;;;;;;;25.10;93.50;;;;;;6727935;88;20063;-79
2024/04/07 11:10:38;;;;;;;;;;;25.80;93.10;;;;;;6721565;88;20140;-78
2024/04/07 11:20:39;;;;;;;;;;;25.30;93.30;;;;;;6728024;88;20193;-79
2024/04/07 11:30:45;;;;;;;;;;;25.50;92.80;;;;;;6726816;88;20078;-79
2024/04/07 11:40:48;;;;;;;;;;;24.30;93.70;;;;;;6721862;88;20098;-78
2024/04/07 11:50:48;;;;;;;;;;;23.90;94.10;;;;;;6733447;88;20051;-79
2024/04/07 12:00:49;;;;;;;;;;;23.50;94.90;;;;;;6727802;88;20213;-80
2024/04/07 12:10:49;;;;;;;;;;;23.60;94.60;;;;;;6729288;88;20082;-80
2024/04/07 12:20:50;;;;;;;;;;;23.50;94.80;;;;;;6722337;88;20606;-78
2024/04/07 12:30:53;;;;;;;;;;;23.50;95.60;;;;;;6723440;88;20054;-78
2024/04/07 12:40:55;;;;;;;;;;;23.60;95.40;;;;;;6712095;88;20133;-81
2024/04/07 12:50:55;;;;;;;;;;;23.60;95.70;;;;;;6726992;88;20066;-79
2024/04/07 13:00:55;;;;;;;;;;;23.40;95.40;;;;;;6724405;88;20060;-79
2024/04/07 13:10:57;;;;;;;;;;;23.80;95.40;;;;;;6713996;88;20095;-77
2024/04/07 13:20:58;;;;;;;;;;;24.60;95.30;;;;;;6713011;88;20074;-78
2024/04/07 13:30:58;;;;;;;;;;;24.90;94.80;;;;;;6717379;88;20065;-77
2024/04/07 13:40:59;;;;;;;;;;;25.30;94.20;;;;;;6720819;88;20488;-78
2024/04/07 13:50:59;;;;;;;;;;;26.00;93.50;;;;;;6714120;88;20156;-78
2024/04/07 14:01:01;;;;;;;;;;;25.70;93.70;;;;;;6717119;88;20083;-77
2024/04/07 14:11:01;;;;;;;;;;;25.70;93.70;;;;;;6738819;77;20695;-76
2024/04/07 14:21:02;;;;;;;;;;;25.70;93.60;;;;;;6733780;88;20157;-75
2024/04/07 14:31:02;;;;;;;;;;;25.70;93.50;;;;;;6718913;88;20152;-74
2024/04/07 14:41:04;;;;;;;;;;;25.60;93.70;;;;;;6724202;88;20461;-77
2024/04/07 14:51:04;;;;;;;;;;;25.40;94.10;;;;;;6725613;88;20054;-77
2024/04/07 15:01:06;;;;;;;;;;;25.40;94.40;;;;;;6723032;88;20477;-75
2024/04/07 15:11:06;;;;;;;;;;;25.40;94.50;;;;;;6722002;88;20156;-78
2024/04/07 15:21:07;;;;;;;;;;;24.80;94.70;;;;;;6723623;88;20549;-76
2024/04/07 15:31:08;;;;;;;;;;;24.60;94.60;;;;;;6729706;88;20070;-76
2024/04/07 15:41:08;;;;;;;;;;;24.40;94.60;;;;;;6722075;88;20194;-76
2024/04/07 15:51:09;;;;;;;;;;;24.20;95.30;;;;;;6726343;88;20057;-77
2024/04/07 16:01:09;;;;;;;;;;;24.10;95.60;;;;;;6737624;88;20501;-75
2024/04/07 16:11:09;;;;;;;;;;;23.90;95.50;;;;;;6733370;88;20191;-76
2024/04/07 16:21:12;;;;;;;;;;;23.80;96.00;;;;;;6724501;88;20046;-74
2024/04/07 16:31:13;;;;;;;;;;;23.70;95.90;;;;;;6720777;88;20097;-76
2024/04/07 16:41:14;;;;;;;;;;;23.60;96.30;;;;;;6732709;88;20107;-78
2024/04/07 16:51:14;;;;;;;;;;;23.50;96.60;;;;;;6721688;88;20121;-75
2024/04/07 17:01:14;;;;;;;;;;;23.30;96.90;;;;;;6731544;88;20124;-75
2024/04/07 17:11:15;;;;;;;;;;;23.30;96.70;;;;;;6721597;88;20057;-76
2024/04/07 17:21:16;;;;;;;;;;;23.00;96.90;;;;;;6726612;88;20080;-76
2024/04/07 17:31:16;;;;;;;;;;;22.80;97.30;;;;;;6726559;88;20058;-77
2024/04/07 17:41:17;;;;;;;;;;;22.80;97.30;;;;;;6724252;88;20220;-76
2024/04/07 17:51:17;;;;;;;;;;;22.40;97.70;;;;;;6722660;88;20513;-76
2024/04/07 18:01:18;;;;;;;;;;;22.20;98.40;;;;;;6722543;88;20107;-77
2024/04/07 18:11:18;;;;;;;;;;;22.00;99.20;;;;;;6728270;88;20139;-77
2024/04/07 18:21:19;;;;;;;;;;;21.90;99.00;;;;;;6722459;88;20104;-78
2024/04/07 18:31:20;;;;;;;;;;;21.80;99.40;;;;;;6720149;88;20546;-77
2024/04/07 18:41:20;;;;;;;;;;;21.40;99.90;;;;;;6720524;88;20082;-77
2024/04/07 18:51:21;;;;;;;;;;;21.10;99.90;;;;;;6722156;88;20080;-77
2024/04/07 19:01:21;;;;;;;;;;;20.90;99.90;;;;;;6723282;88;21042;-77
2024/04/07 19:11:21;;;;;;;;;;;20.80;99.90;;;;;;6721702;88;20549;-77
2024/04/07 19:21:23;;;;;;;;;;;20.50;99.90;;;;;;6724986;88;20073;-76
2024/04/07 19:31:24;;;;;;;;;;;20.30;99.90;;;;;;6723488;88;20051;-78
2024/04/07 19:41:24;;;;;;;;;;;20.20;99.90;;;;;;6728087;88;20092;-76
2024/04/07 19:51:25;;;;;;;;;;;20.00;99.90;;;;;;6725686;88;20485;-76
2024/04/07 20:01:25;;;;;;;;;;;19.90;99.90;;;;;;6723922;88;20067;-75
2024/04/07 20:11:27;;;;;;;;;;;19.70;99.90;;;;;;6728119;77;20567;-79
2024/04/07 20:21:30;;;;;;;;;;;19.60;99.90;;;;;;6699702;88;20064;-82
2024/04/07 20:31:31;;;;;;;;;;;19.50;99.90;;;;;;6695625;88;20068;-79
2024/04/07 20:41:31;;;;;;;;;;;19.30;99.90;;;;;;6704726;88;20058;-77
2024/04/07 20:51:32;;;;;;;;;;;18.80;99.90;;;;;;6701698;88;20073;-79
2024/04/07 21:01:32;;;;;;;;;;;18.50;99.90;;;;;;6686238;88;20065;-78
2024/04/07 21:11:33;;;;;;;;;;;18.20;99.90;;;;;;6692365;88;20671;-77
2024/04/07 21:21:33;;;;;;;;;;;17.80;99.90;;;;;;6688146;88;20064;-77
2024/04/07 21:31:34;;;;;;;;;;;17.70;99.90;;;;;;6685549;88;20508;-77
2024/04/07 21:41:34;;;;;;;;;;;17.50;99.90;;;;;;6689333;88;20112;-77
2024/04/07 21:51:34;;;;;;;;;;;17.40;99.90;;;;;;6695009;88;20074;-77
2024/04/07 22:01:35;;;;;;;;;;;17.40;99.90;;;;;;6689638;88;20175;-78
2024/04/07 22:11:36;;;;;;;;;;;17.30;99.90;;;;;;6684202;88;20226;-78
2024/04/07 22:21:36;;;;;;;;;;;17.10;99.90;;;;;;6687436;88;20877;-77
2024/04/07 22:31:36;;;;;;;;;;;17.10;99.90;;;;;;6687781;88;20128;-78
2024/04/07 22:41:37;;;;;;;;;;;17.20;99.90;;;;;;6683900;88;20126;-78
2024/04/07 22:51:38;;;;;;;;;;;17.20;99.90;;;;;;6687658;88;20120;-78
2024/04/07 23:01:38;;;;;;;;;;;17.00;99.90;;;;;;6682993;88;20209;-77
2024/04/07 23:11:39;;;;;;;;;;;16.90;99.90;;;;;;6690421;88;20060;-77
2024/04/07 23:21:39;;;;;;;;;;;16.80;99.90;;;;;;6683182;88;20061;-78
2024/04/07 23:31:40;;;;;;;;;;;16.70;99.90;;;;;;6683931;88;20135;-79
2024/04/07 23:41:40;;;;;;;;;;;16.60;99.90;;;;;;6689265;88;20064;-77
2024/04/07 23:51:41;;;;;;;;;;;16.50;99.90;;;;;;6681416;88;20056;-77
